Time;durP1;ratioP1;P1;durP2;ratioP2;P2;SDS_P1;SDS_P2;PMS_P1;PMS_P2;Temp;Humidity;BMP_temperature;BMP_pressure;BME280_temperature;BME280_humidity;BME280_pressure;Samples;Min_cycle;Max_cycle;Signal;HPM_P1;HPM_P2
2023/07/27 00:00:56;;;;;;;13.50;9.02;;;13.50;99.90;;;;;;5105520;28;20097;-76
2023/07/27 00:03:22;;;;;;;12.65;8.27;;;13.40;99.90;;;;;;5102972;28;20033;-76
2023/07/27 00:05:48;;;;;;;12.07;8.45;;;13.40;99.90;;;;;;5104796;28;20040;-76
2023/07/27 00:08:13;;;;;;;11.60;7.50;;;13.40;99.90;;;;;;5086873;28;20362;-76
2023/07/27 00:10:40;;;;;;;12.35;8.07;;;13.40;99.90;;;;;;5106364;28;20032;-76
2023/07/27 00:13:06;;;;;;;16.17;8.82;;;13.30;99.90;;;;;;5104515;28;20406;-75
2023/07/27 00:15:31;;;;;;;13.48;8.65;;;13.20;99.90;;;;;;5106905;28;20490;-75
2023/07/27 00:17:57;;;;;;;13.95;9.25;;;13.20;99.90;;;;;;5084577;28;20036;-76
2023/07/27 00:20:23;;;;;;;12.48;8.13;;;13.20;99.90;;;;;;5087734;28;20044;-76
2023/07/27 00:22:49;;;;;;;13.02;8.55;;;13.30;99.90;;;;;;5106161;28;20055;-76
2023/07/27 00:25:14;;;;;;;12.90;7.85;;;13.20;99.90;;;;;;5081068;28;20039;-75
2023/07/27 00:27:40;;;;;;;12.18;8.20;;;13.30;99.90;;;;;;5086517;28;20509;-76
2023/07/27 00:30:06;;;;;;;12.10;8.50;;;13.20;99.90;;;;;;5087614;28;20039;-75
2023/07/27 00:32:32;;;;;;;12.40;8.45;;;13.30;99.90;;;;;;5085766;28;20039;-76
2023/07/27 00:34:57;;;;;;;11.13;7.43;;;13.30;99.90;;;;;;5086845;28;20054;-75
2023/07/27 00:37:23;;;;;;;13.35;7.82;;;13.20;99.90;;;;;;5084525;28;20055;-75
2023/07/27 00:39:49;;;;;;;12.63;7.82;;;13.20;99.90;;;;;;5106951;28;20040;-76
2023/07/27 00:42:14;;;;;;;11.68;6.88;;;13.30;99.90;;;;;;5103482;28;20046;-75
2023/07/27 00:44:40;;;;;;;12.30;7.20;;;13.30;99.90;;;;;;5087190;28;20168;-77
2023/07/27 00:47:06;;;;;;;12.07;7.80;;;13.30;99.90;;;;;;5087139;28;20092;-75
2023/07/27 00:49:32;;;;;;;12.35;7.50;;;13.30;99.90;;;;;;5087262;28;20104;-75
2023/07/27 00:51:59;;;;;;;12.77;6.68;;;13.30;99.90;;;;;;5111846;28;20123;-77
2023/07/27 00:54:25;;;;;;;10.98;7.28;;;13.30;99.90;;;;;;5086203;28;20043;-75
2023/07/27 00:56:51;;;;;;;11.70;7.13;;;13.40;99.90;;;;;;5106744;28;20040;-75
2023/07/27 00:59:16;;;;;;;11.55;6.65;;;13.40;99.90;;;;;;5085248;28;20106;-75
2023/07/27 01:01:42;;;;;;;12.57;7.25;;;13.40;99.90;;;;;;5086688;28;20039;-76
2023/07/27 01:04:08;;;;;;;9.27;6.68;;;13.40;99.90;;;;;;5104912;28;20032;-75
2023/07/27 01:06:34;;;;;;;11.95;6.78;;;13.40;99.90;;;;;;5106023;28;20046;-76
2023/07/27 01:09:00;;;;;;;12.27;7.03;;;13.50;99.90;;;;;;5089894;28;20036;-75
2023/07/27 01:11:53;;;;;;;10.85;6.45;;;13.50;99.90;;;;;;5108797;27;20039;-76
2023/07/27 01:14:31;;;;;;;11.73;6.95;;;13.50;99.90;;;;;;5107160;28;20053;-75
2023/07/27 01:17:32;;;;;;;12.50;7.25;;;13.50;99.90;;;;;;5107795;27;20048;-75
2023/07/27 01:20:07;;;;;;;11.48;7.30;;;13.50;99.90;;;;;;5085040;28;20155;-76
2023/07/27 01:22:33;;;;;;;11.68;6.95;;;13.50;99.90;;;;;;5105817;28;20502;-75
2023/07/27 01:25:37;;;;;;;9.65;6.35;;;13.40;99.90;;;;;;5107605;27;20044;-76
2023/07/27 01:28:24;;;;;;;13.10;7.43;;;13.50;99.90;;;;;;5100685;27;20048;-75
2023/07/27 01:30:57;;;;;;;9.20;6.90;;;13.50;99.90;;;;;;5106685;27;20044;-75
2023/07/27 01:33:33;;;;;;;10.75;7.38;;;13.50;99.90;;;;;;5106128;28;20052;-75
2023/07/27 01:36:09;;;;;;;13.18;7.00;;;13.40;99.90;;;;;;5106404;28;20043;-76
2023/07/27 01:38:47;;;;;;;11.88;7.35;;;13.50;99.90;;;;;;5090580;28;20168;-76
2023/07/27 01:41:14;;;;;;;13.00;7.35;;;13.50;99.90;;;;;;5093903;28;20474;-76
2023/07/27 01:43:42;;;;;;;11.32;6.95;;;13.50;99.90;;;;;;5088988;28;20052;-76
2023/07/27 01:46:11;;;;;;;9.38;6.50;;;13.50;99.90;;;;;;5089647;28;20040;-76
2023/07/27 01:48:41;;;;;;;10.68;7.15;;;13.50;99.90;;;;;;5106755;28;20039;-75
2023/07/27 01:51:09;;;;;;;9.85;6.80;;;13.50;99.90;;;;;;5106092;28;20040;-74
2023/07/27 01:53:36;;;;;;;10.63;7.15;;;13.50;99.90;;;;;;5109754;28;20083;-75
2023/07/27 01:56:06;;;;;;;11.02;6.82;;;13.50;99.90;;;;;;5087861;28;20047;-74
2023/07/27 01:58:35;;;;;;;10.65;7.30;;;13.50;99.90;;;;;;5109321;28;20056;-75
2023/07/27 02:01:01;;;;;;;10.73;6.90;;;13.60;99.90;;;;;;5105224;28;20067;-76
2023/07/27 02:03:27;;;;;;;10.00;6.50;;;13.50;99.90;;;;;;5108483;28;20134;-76
2023/07/27 02:05:52;;;;;;;10.23;6.30;;;13.60;99.90;;;;;;5105350;28;20134;-76
2023/07/27 02:08:18;;;;;;;8.93;6.40;;;13.60;99.90;;;;;;5089982;28;20364;-76
2023/07/27 02:10:51;;;;;;;11.80;7.43;;;13.60;99.90;;;;;;5100687;27;20437;-76
2023/07/27 02:13:39;;;;;;;13.73;7.47;;;13.60;99.90;;;;;;5103235;27;20039;-76
2023/07/27 02:16:32;;;;;;;9.45;6.68;;;13.70;99.90;;;;;;5078075;28;20525;-76
2023/07/27 02:19:00;;;;;;;10.20;6.83;;;13.60;99.90;;;;;;5081000;28;20088;-76
2023/07/27 02:21:28;;;;;;;10.48;7.13;;;13.70;99.90;;;;;;5106324;28;20296;-76
2023/07/27 02:23:55;;;;;;;10.68;7.13;;;13.70;99.90;;;;;;5088330;28;20051;-76
2023/07/27 02:26:21;;;;;;;11.32;7.38;;;13.70;99.90;;;;;;5106830;28;20043;-76
2023/07/27 02:28:47;;;;;;;11.35;7.07;;;13.80;99.90;;;;;;5090663;28;20050;-76
2023/07/27 02:31:12;;;;;;;10.35;6.53;;;13.80;99.90;;;;;;5105085;27;20126;-76
2023/07/27 02:33:38;;;;;;;12.85;6.90;;;13.80;99.90;;;;;;5108597;28;20059;-76
2023/07/27 02:36:04;;;;;;;10.68;7.40;;;13.80;99.90;;;;;;5106451;28;20040;-75
2023/07/27 02:38:31;;;;;;;10.75;6.50;;;13.80;99.90;;;;;;5107005;28;20040;-76
2023/07/27 02:40:56;;;;;;;11.07;6.55;;;13.80;99.90;;;;;;5103921;27;20122;-76
2023/07/27 02:43:22;;;;;;;12.43;7.00;;;13.80;99.90;;;;;;5092240;28;20107;-75
2023/07/27 02:45:48;;;;;;;13.55;7.45;;;13.90;99.90;;;;;;5100183;27;20032;-76
2023/07/27 02:48:13;;;;;;;10.50;6.45;;;13.90;99.90;;;;;;5107018;28;20487;-77
2023/07/27 02:50:49;;;;;;;9.65;6.47;;;13.90;99.90;;;;;;5107025;28;20142;-75
2023/07/27 02:53:15;;;;;;;10.02;6.63;;;13.90;99.90;;;;;;5106229;28;20113;-77
2023/07/27 02:55:40;;;;;;;12.77;7.18;;;13.90;99.90;;;;;;5088959;28;20040;-75
2023/07/27 02:58:06;;;;;;;11.68;7.00;;;13.90;99.90;;;;;;5088750;27;20725;-74
2023/07/27 03:00:32;;;;;;;10.48;7.80;;;13.90;99.90;;;;;;5107514;28;20054;-74
2023/07/27 03:03:00;;;;;;;10.02;6.68;;;13.90;99.90;;;;;;5089774;28;20043;-75
2023/07/27 03:05:25;;;;;;;11.43;7.15;;;13.90;99.90;;;;;;5054244;28;20115;-75
2023/07/27 03:07:51;;;;;;;9.55;6.82;;;13.90;99.90;;;;;;5103138;28;20147;-76
2023/07/27 03:10:16;;;;;;;12.27;7.68;;;13.90;99.90;;;;;;5087814;28;20054;-76
2023/07/27 03:12:42;;;;;;;13.68;7.47;;;13.90;99.90;;;;;;5108279;28;20040;-76
2023/07/27 03:15:08;;;;;;;11.23;8.20;;;14.00;99.90;;;;;;5107454;28;20557;-75
2023/07/27 03:17:34;;;;;;;12.25;7.50;;;13.90;99.90;;;;;;5106130;27;20035;-76
2023/07/27 03:19:59;;;;;;;10.55;6.90;;;13.90;99.90;;;;;;5086928;28;20036;-76
2023/07/27 03:22:25;;;;;;;10.30;8.00;;;13.90;99.90;;;;;;5107286;28;20277;-77
2023/07/27 03:24:51;;;;;;;12.65;8.00;;;13.90;99.90;;;;;;5086843;28;20109;-76
2023/07/27 03:27:17;;;;;;;12.63;8.43;;;13.90;99.90;;;;;;5086319;28;20449;-75
2023/07/27 03:29:42;;;;;;;13.20;7.95;;;13.90;99.90;;;;;;5108693;28;20808;-76
2023/07/27 03:32:08;;;;;;;14.50;8.85;;;13.90;99.90;;;;;;5087268;28;20118;-76
2023/07/27 03:34:34;;;;;;;13.02;8.27;;;14.00;99.90;;;;;;5088428;28;20093;-76
2023/07/27 03:36:59;;;;;;;13.18;8.57;;;13.90;99.90;;;;;;5106643;28;20040;-75
2023/07/27 03:39:25;;;;;;;15.38;8.65;;;14.00;99.90;;;;;;5086885;28;20414;-76
2023/07/27 03:41:50;;;;;;;12.30;8.70;;;14.00;99.90;;;;;;5109824;27;20447;-75
2023/07/27 03:44:16;;;;;;;15.18;9.35;;;14.00;99.90;;;;;;5106184;28;20361;-76
2023/07/27 03:46:42;;;;;;;14.93;9.48;;;14.00;99.90;;;;;;5103418;27;20193;-75
2023/07/27 03:49:09;;;;;;;19.50;10.32;;;14.00;99.90;;;;;;5103097;28;20521;-75
2023/07/27 03:51:34;;;;;;;14.43;9.85;;;13.90;99.90;;;;;;5105498;28;20131;-76
2023/07/27 03:54:00;;;;;;;14.13;9.70;;;13.90;99.90;;;;;;5070526;28;20138;-75
2023/07/27 03:56:26;;;;;;;16.65;10.80;;;13.90;99.90;;;;;;5084583;28;20040;-75
2023/07/27 03:58:51;;;;;;;18.98;10.60;;;13.90;99.90;;;;;;5099189;28;20040;-76
2023/07/27 04:01:17;;;;;;;17.60;11.02;;;14.00;99.90;;;;;;5087991;28;20120;-75
2023/07/27 04:03:42;;;;;;;16.48;11.20;;;13.90;99.90;;;;;;5103204;28;20040;-75
2023/07/27 04:06:08;;;;;;;17.80;11.18;;;13.90;99.90;;;;;;5105593;27;20044;-75
2023/07/27 04:08:34;;;;;;;18.80;11.93;;;14.00;99.90;;;;;;5071658;28;20094;-76
2023/07/27 04:10:59;;;;;;;20.02;12.13;;;13.90;99.90;;;;;;5102600;28;20032;-77
2023/07/27 04:13:25;;;;;;;18.92;11.68;;;14.00;99.90;;;;;;5087028;28;20046;-76
2023/07/27 04:15:51;;;;;;;18.67;11.50;;;14.00;99.90;;;;;;5085946;28;20166;-77
2023/07/27 04:18:16;;;;;;;17.23;11.30;;;14.00;99.90;;;;;;5106208;28;20126;-77
2023/07/27 04:20:42;;;;;;;18.25;11.70;;;14.00;99.90;;;;;;5086148;28;20711;-77
2023/07/27 04:23:07;;;;;;;18.13;11.95;;;14.10;99.90;;;;;;5103928;28;20036;-76
2023/07/27 04:25:33;;;;;;;22.58;13.68;;;14.10;99.90;;;;;;5105817;28;20067;-77
2023/07/27 04:27:59;;;;;;;21.52;13.02;;;14.00;99.90;;;;;;5105983;28;20483;-77
2023/07/27 04:30:24;;;;;;;20.90;12.98;;;14.00;99.90;;;;;;5087965;28;20204;-77
2023/07/27 04:32:50;;;;;;;19.55;12.90;;;14.00;99.90;;;;;;5087808;28;20096;-77
2023/07/27 04:35:16;;;;;;;16.30;11.05;;;14.00;99.90;;;;;;5087207;28;20036;-75
2023/07/27 04:37:41;;;;;;;20.05;13.20;;;14.00;99.90;;;;;;5104687;28;20038;-76
2023/07/27 04:40:07;;;;;;;21.00;13.45;;;14.00;99.90;;;;;;5088002;28;20042;-76
2023/07/27 04:42:33;;;;;;;18.80;12.88;;;14.00;99.90;;;;;;5082840;28;20040;-78
2023/07/27 04:44:58;;;;;;;20.23;13.27;;;14.00;99.90;;;;;;5091072;28;20063;-77
2023/07/27 04:47:24;;;;;;;19.85;13.30;;;14.00;99.90;;;;;;5091112;28;20052;-77
2023/07/27 04:49:49;;;;;;;18.08;11.98;;;13.90;99.90;;;;;;5108162;28;20059;-77
2023/07/27 04:52:15;;;;;;;22.02;13.40;;;13.90;99.90;;;;;;5092260;28;20269;-77
2023/07/27 04:54:41;;;;;;;24.15;13.77;;;13.90;99.90;;;;;;5074758;28;20066;-77
2023/07/27 04:57:06;;;;;;;16.27;11.65;;;13.90;99.90;;;;;;5091446;28;20127;-77
2023/07/27 04:59:32;;;;;;;20.65;12.90;;;14.00;99.90;;;;;;5091151;28;20046;-77
2023/07/27 05:01:58;;;;;;;20.92;13.30;;;14.00;99.90;;;;;;5090199;28;20620;-76
2023/07/27 05:04:23;;;;;;;21.13;13.93;;;13.90;99.90;;;;;;5116060;27;20039;-77
2023/07/27 05:06:49;;;;;;;21.33;13.20;;;13.90;99.90;;;;;;5108072;27;20052;-77
2023/07/27 05:09:16;;;;;;;21.92;14.32;;;13.90;99.90;;;;;;5092126;28;20671;-77
2023/07/27 05:11:41;;;;;;;23.10;14.32;;;13.90;99.90;;;;;;5090583;28;20065;-77
2023/07/27 05:14:07;;;;;;;24.30;15.02;;;13.90;99.90;;;;;;5090919;28;20124;-76
2023/07/27 05:16:33;;;;;;;24.83;15.10;;;13.90;99.90;;;;;;5108584;27;20157;-76
2023/07/27 05:18:58;;;;;;;23.40;15.05;;;13.90;99.90;;;;;;5091095;28;20048;-78
2023/07/27 05:21:24;;;;;;;25.38;15.02;;;13.90;99.90;;;;;;5091154;28;20495;-76
2023/07/27 05:23:50;;;;;;;24.45;14.27;;;13.90;99.90;;;;;;5108170;28;20040;-76
2023/07/27 05:26:15;;;;;;;23.95;13.77;;;14.00;99.90;;;;;;5099806;27;20138;-77
2023/07/27 05:28:41;;;;;;;22.05;13.95;;;14.00;99.90;;;;;;5108718;28;20045;-75
2023/07/27 05:31:07;;;;;;;27.00;14.57;;;14.00;99.90;;;;;;5108195;27;20122;-76
2023/07/27 05:33:33;;;;;;;18.90;12.38;;;14.00;99.90;;;;;;5108343;28;20132;-76
2023/07/27 05:35:59;;;;;;;23.77;14.18;;;14.10;99.90;;;;;;5107687;28;20482;-76
2023/07/27 05:38:25;;;;;;;21.63;13.38;;;14.10;99.90;;;;;;5108091;27;20047;-76
2023/07/27 05:40:50;;;;;;;17.77;12.10;;;14.20;99.90;;;;;;5092881;28;20109;-76
2023/07/27 05:43:19;;;;;;;20.83;12.48;;;14.20;99.90;;;;;;5086093;28;20419;-75
2023/07/27 05:45:49;;;;;;;18.83;11.40;;;14.20;99.90;;;;;;5090895;28;20047;-77
2023/07/27 05:48:15;;;;;;;17.80;11.52;;;14.20;99.90;;;;;;5087534;28;20132;-76
2023/07/27 05:50:41;;;;;;;17.65;10.27;;;14.20;99.90;;;;;;5108536;28;20118;-76
2023/07/27 05:53:07;;;;;;;15.50;10.45;;;14.10;99.90;;;;;;5109634;28;20194;-75
2023/07/27 05:55:32;;;;;;;19.02;10.82;;;14.20;99.90;;;;;;5086176;28;20043;-76
2023/07/27 05:57:58;;;;;;;18.27;11.55;;;14.30;99.90;;;;;;5071017;28;20173;-75
2023/07/27 06:00:24;;;;;;;16.95;11.52;;;14.20;99.90;;;;;;5098572;27;20085;-77
2023/07/27 06:02:49;;;;;;;16.30;11.18;;;14.30;99.90;;;;;;5110982;27;20039;-77
2023/07/27 06:05:15;;;;;;;17.17;10.75;;;14.30;99.90;;;;;;5107569;28;20052;-77
2023/07/27 06:07:42;;;;;;;17.52;11.55;;;14.20;99.90;;;;;;5104304;28;20052;-76
2023/07/27 06:10:08;;;;;;;19.70;11.55;;;14.20;99.90;;;;;;5105027;28;20433;-74
2023/07/27 06:12:34;;;;;;;19.23;11.90;;;14.20;99.90;;;;;;5123089;27;20076;-78
2023/07/27 06:14:59;;;;;;;16.67;11.13;;;14.20;99.90;;;;;;5089484;28;20048;-78
2023/07/27 06:17:27;;;;;;;17.40;11.15;;;14.30;99.90;;;;;;5101799;27;20182;-77
2023/07/27 06:19:53;;;;;;;16.63;11.02;;;14.30;99.90;;;;;;5087061;28;20068;-75
2023/07/27 06:22:19;;;;;;;16.15;10.80;;;14.30;99.90;;;;;;5085182;28;20580;-76
2023/07/27 06:24:45;;;;;;;12.50;8.50;;;14.40;99.90;;;;;;5091897;28;20225;-76
2023/07/27 06:27:11;;;;;;;16.10;10.13;;;14.40;99.90;;;;;;5107161;27;20062;-76
2023/07/27 06:29:36;;;;;;;15.25;9.43;;;14.40;99.90;;;;;;5105012;27;20047;-75
2023/07/27 06:32:02;;;;;;;12.88;8.27;;;14.50;99.90;;;;;;5102570;28;20035;-74
2023/07/27 06:34:28;;;;;;;17.50;9.68;;;14.50;99.90;;;;;;5101214;28;20501;-76
2023/07/27 06:36:54;;;;;;;14.18;9.02;;;14.60;99.90;;;;;;5084928;28;20067;-77
2023/07/27 06:39:19;;;;;;;12.75;9.65;;;14.60;99.90;;;;;;5088613;28;20102;-76
2023/07/27 06:41:45;;;;;;;11.95;7.95;;;14.70;99.90;;;;;;5095641;28;20075;-75
2023/07/27 06:44:11;;;;;;;12.43;8.80;;;14.70;99.90;;;;;;5103259;28;20134;-76
2023/07/27 06:46:36;;;;;;;12.57;8.70;;;14.70;99.90;;;;;;5104983;28;20118;-76
2023/07/27 06:49:02;;;;;;;14.13;8.45;;;14.80;99.90;;;;;;5108034;28;20032;-75
2023/07/27 06:51:28;;;;;;;14.23;9.45;;;14.70;99.90;;;;;;5103671;27;20039;-76
2023/07/27 06:53:54;;;;;;;13.25;9.00;;;14.80;99.90;;;;;;5090813;28;20482;-77
2023/07/27 06:56:20;;;;;;;12.20;8.50;;;14.80;99.90;;;;;;5088341;28;20030;-76
2023/07/27 06:58:46;;;;;;;14.00;8.90;;;14.90;99.90;;;;;;5103757;28;20044;-77
2023/07/27 07:01:12;;;;;;;12.23;8.45;;;14.80;99.90;;;;;;5104500;28;20048;-77
2023/07/27 07:03:38;;;;;;;13.80;8.20;;;14.90;99.90;;;;;;5107711;28;20881;-76
2023/07/27 07:06:03;;;;;;;12.13;8.52;;;15.00;99.90;;;;;;5106858;28;20458;-76
2023/07/27 07:08:30;;;;;;;12.13;8.70;;;15.00;99.90;;;;;;5107738;28;20032;-76
2023/07/27 07:10:56;;;;;;;11.88;8.55;;;15.10;99.90;;;;;;5106959;28;20127;-76
2023/07/27 07:13:23;;;;;;;11.90;7.93;;;15.20;99.90;;;;;;5089132;28;20131;-75
2023/07/27 07:15:52;;;;;;;11.07;7.82;;;15.30;99.90;;;;;;5108140;28;20504;-76
2023/07/27 07:18:17;;;;;;;10.70;7.82;;;15.30;99.90;;;;;;5105631;28;20417;-76
2023/07/27 07:20:43;;;;;;;12.07;7.88;;;15.30;99.90;;;;;;5071409;28;20036;-77
2023/07/27 07:23:09;;;;;;;8.70;7.10;;;15.30;99.90;;;;;;5105973;28;20105;-76
2023/07/27 07:25:34;;;;;;;9.95;7.18;;;15.40;99.90;;;;;;5087292;28;20048;-76
2023/07/27 07:28:00;;;;;;;10.77;8.10;;;15.30;99.90;;;;;;5072119;28;20067;-77
2023/07/27 07:30:25;;;;;;;9.68;7.45;;;15.40;99.90;;;;;;5104153;28;20620;-77
2023/07/27 07:32:51;;;;;;;11.40;7.18;;;15.40;99.90;;;;;;5086782;28;20100;-76
2023/07/27 07:35:18;;;;;;;10.93;7.38;;;15.30;99.90;;;;;;5071458;28;20039;-76
2023/07/27 07:37:44;;;;;;;10.45;7.15;;;15.30;99.90;;;;;;5107991;28;20092;-77
2023/07/27 07:40:10;;;;;;;10.30;7.70;;;15.30;99.90;;;;;;5081522;28;20131;-76
2023/07/27 07:42:35;;;;;;;11.77;7.82;;;15.30;99.90;;;;;;5107236;27;20131;-75
2023/07/27 07:45:01;;;;;;;11.00;7.75;;;15.20;99.90;;;;;;5088257;28;20449;-75
2023/07/27 07:47:27;;;;;;;12.88;7.95;;;15.20;99.90;;;;;;5104453;28;20043;-75
2023/07/27 07:49:52;;;;;;;11.38;7.72;;;15.20;99.90;;;;;;5088155;28;20342;-75
2023/07/27 07:52:18;;;;;;;9.30;6.85;;;15.30;99.90;;;;;;5087933;28;20496;-78
2023/07/27 07:54:44;;;;;;;9.80;7.32;;;15.20;99.90;;;;;;5085301;28;20474;-78
2023/07/27 07:57:09;;;;;;;9.80;7.05;;;15.20;99.90;;;;;;5103633;28;20088;-79
2023/07/27 07:59:35;;;;;;;9.23;7.13;;;15.30;99.90;;;;;;5087972;28;20515;-78
2023/07/27 08:02:01;;;;;;;9.55;6.72;;;15.30;99.90;;;;;;5103083;28;20040;-74
2023/07/27 08:04:27;;;;;;;10.25;7.28;;;15.30;99.90;;;;;;5086753;28;20051;-80
2023/07/27 08:06:53;;;;;;;9.85;6.30;;;15.30;99.90;;;;;;5104935;27;20089;-80
2023/07/27 08:09:19;;;;;;;7.97;5.40;;;15.30;99.90;;;;;;5087945;28;20039;-80
2023/07/27 08:11:45;;;;;;;8.35;5.85;;;15.20;99.90;;;;;;5106253;27;20066;-80
2023/07/27 08:14:11;;;;;;;7.57;5.50;;;15.30;99.90;;;;;;5085845;28;20035;-79
2023/07/27 08:16:37;;;;;;;6.80;5.40;;;15.20;99.90;;;;;;5088125;28;22159;-76
2023/07/27 08:19:03;;;;;;;6.70;5.32;;;15.20;99.90;;;;;;5102281;28;20031;-73
2023/07/27 08:21:28;;;;;;;7.65;5.40;;;15.20;99.90;;;;;;5104976;28;20411;-75
2023/07/27 08:23:54;;;;;;;7.75;5.93;;;15.20;99.90;;;;;;5100447;27;20035;-75
2023/07/27 08:26:20;;;;;;;7.45;6.05;;;15.20;99.90;;;;;;5113045;27;20452;-75
2023/07/27 08:28:47;;;;;;;6.35;4.97;;;15.30;99.90;;;;;;5106975;27;20489;-74
2023/07/27 08:31:13;;;;;;;7.55;4.97;;;15.30;99.90;;;;;;5086351;28;20031;-75
2023/07/27 08:33:39;;;;;;;6.80;5.43;;;15.40;99.90;;;;;;5084790;28;20414;-75
2023/07/27 08:36:05;;;;;;;6.93;5.30;;;15.40;99.90;;;;;;5103476;28;20043;-75
2023/07/27 08:38:31;;;;;;;5.75;4.57;;;15.40;99.90;;;;;;5087704;28;20031;-75
2023/07/27 08:40:58;;;;;;;6.22;5.07;;;15.40;99.90;;;;;;5087510;28;20486;-75
2023/07/27 08:43:25;;;;;;;7.40;5.53;;;15.40;99.90;;;;;;5102976;28;20040;-75
2023/07/27 08:45:52;;;;;;;7.18;5.85;;;15.40;99.90;;;;;;5084378;28;20051;-75
2023/07/27 08:48:18;;;;;;;6.75;5.45;;;15.40;99.90;;;;;;5106460;28;20529;-75
2023/07/27 08:50:46;;;;;;;6.82;5.40;;;15.40;99.90;;;;;;5088223;28;20036;-75
2023/07/27 08:53:13;;;;;;;6.68;5.53;;;15.40;99.90;;;;;;5087470;28;20040;-75
2023/07/27 08:55:39;;;;;;;8.32;5.57;;;15.40;99.90;;;;;;5104910;28;20044;-75
2023/07/27 08:58:09;;;;;;;6.82;5.38;;;15.50;99.90;;;;;;5121746;28;20394;-74
2023/07/27 09:00:36;;;;;;;7.70;5.32;;;15.50;99.90;;;;;;5086891;28;20051;-75
2023/07/27 09:03:01;;;;;;;6.43;5.22;;;15.50;99.90;;;;;;5086525;28;20051;-73
2023/07/27 09:05:44;;;;;;;7.13;5.85;;;15.50;99.90;;;;;;5086616;28;20044;-74
2023/07/27 09:08:13;;;;;;;6.55;5.10;;;15.50;99.90;;;;;;5085566;28;20475;-73
2023/07/27 09:10:41;;;;;;;7.10;5.60;;;15.60;99.90;;;;;;5103506;28;20070;-74
2023/07/27 09:13:07;;;;;;;7.38;5.70;;;15.60;99.90;;;;;;5085296;28;20078;-74
2023/07/27 09:15:33;;;;;;;6.50;5.35;;;15.60;99.90;;;;;;5105961;28;20047;-75
2023/07/27 09:18:01;;;;;;;7.43;5.95;;;15.60;99.90;;;;;;5083581;28;20063;-75
2023/07/27 09:20:28;;;;;;;6.05;5.00;;;15.70;99.90;;;;;;5099461;28;20039;-75
2023/07/27 09:22:56;;;;;;;7.35;5.72;;;15.70;99.90;;;;;;5068787;28;20110;-76
2023/07/27 09:25:24;;;;;;;6.63;5.15;;;15.70;99.90;;;;;;5099693;28;20036;-75
2023/07/27 09:27:55;;;;;;;6.45;5.55;;;15.80;99.90;;;;;;5085017;28;20059;-76
2023/07/27 09:30:22;;;;;;;7.40;6.32;;;15.80;99.90;;;;;;5100187;27;20582;-75
2023/07/27 09:32:48;;;;;;;6.32;5.68;;;15.90;99.90;;;;;;5065554;28;20039;-76
2023/07/27 09:35:15;;;;;;;6.72;5.88;;;15.90;99.90;;;;;;5088001;28;20509;-76
2023/07/27 09:37:47;;;;;;;6.90;5.57;;;16.00;99.90;;;;;;5096085;28;20032;-76
2023/07/27 09:40:15;;;;;;;6.45;5.80;;;16.00;99.90;;;;;;5065898;28;20039;-75
2023/07/27 09:42:42;;;;;;;7.22;5.82;;;16.00;99.90;;;;;;5079496;28;20051;-75
2023/07/27 09:45:09;;;;;;;7.07;6.13;;;16.00;99.90;;;;;;5068985;28;20104;-76
2023/07/27 09:47:35;;;;;;;7.97;5.47;;;16.10;99.90;;;;;;5090740;28;20063;-76
2023/07/27 09:50:02;;;;;;;7.53;6.45;;;16.00;99.90;;;;;;5087624;28;20071;-73
2023/07/27 09:52:29;;;;;;;8.52;6.80;;;16.10;99.90;;;;;;5120992;27;20101;-77
2023/07/27 09:54:57;;;;;;;7.43;6.00;;;16.10;99.90;;;;;;5088678;28;20039;-77
2023/07/27 09:57:24;;;;;;;7.50;6.60;;;16.10;99.90;;;;;;5087588;28;20044;-77
2023/07/27 09:59:50;;;;;;;8.27;6.55;;;16.30;99.90;;;;;;5108465;28;20040;-77
2023/07/27 10:02:16;;;;;;;7.97;6.95;;;16.30;99.90;;;;;;5087684;28;20042;-76
2023/07/27 10:04:43;;;;;;;7.60;6.78;;;16.40;99.90;;;;;;5090972;28;20465;-76
2023/07/27 10:07:09;;;;;;;8.13;7.20;;;16.50;99.90;;;;;;5121477;27;20085;-76
2023/07/27 10:09:36;;;;;;;8.80;7.75;;;16.60;99.90;;;;;;5108005;27;20111;-75
2023/07/27 10:12:04;;;;;;;9.10;8.10;;;16.60;99.90;;;;;;5103190;27;20403;-74
2023/07/27 10:14:31;;;;;;;9.88;7.97;;;16.60;99.90;;;;;;5092635;28;20122;-75
2023/07/27 10:17:08;;;;;;;9.35;8.35;;;16.80;99.90;;;;;;5084078;28;20052;-76
2023/07/27 10:19:43;;;;;;;8.48;7.57;;;16.80;99.90;;;;;;5100907;28;20069;-75
2023/07/27 10:22:14;;;;;;;10.20;8.35;;;17.00;99.90;;;;;;5103286;27;20114;-76
2023/07/27 10:24:49;;;;;;;8.98;8.02;;;17.00;99.90;;;;;;5067749;28;20042;-76
2023/07/27 10:27:17;;;;;;;9.30;7.47;;;17.00;99.90;;;;;;5084810;28;20494;-76
2023/07/27 10:29:52;;;;;;;8.43;7.63;;;17.00;99.90;;;;;;5080947;28;20036;-77
2023/07/27 10:32:18;;;;;;;8.00;7.30;;;17.00;99.90;;;;;;5104721;28;20180;-77
2023/07/27 10:34:50;;;;;;;9.80;7.90;;;17.00;99.90;;;;;;5076316;28;20141;-79
2023/07/27 10:37:16;;;;;;;8.25;7.45;;;17.00;99.90;;;;;;5081328;28;20100;-76
2023/07/27 10:39:50;;;;;;;8.23;7.40;;;17.00;99.90;;;;;;5084594;28;20031;-78
2023/07/27 10:42:20;;;;;;;9.07;8.18;;;17.00;99.90;;;;;;5084148;28;20066;-76
2023/07/27 10:44:56;;;;;;;9.10;8.30;;;17.10;99.90;;;;;;5096682;27;20036;-76
2023/07/27 10:47:38;;;;;;;9.15;8.27;;;17.10;99.90;;;;;;5098276;28;20104;-76
2023/07/27 10:50:04;;;;;;;9.55;8.52;;;17.20;99.90;;;;;;5084267;28;20509;-76
2023/07/27 10:52:39;;;;;;;9.05;8.18;;;17.30;99.90;;;;;;5121813;27;20044;-77
2023/07/27 10:55:06;;;;;;;8.80;8.00;;;17.30;99.90;;;;;;5096336;27;20059;-75
2023/07/27 10:57:33;;;;;;;9.35;8.15;;;17.40;99.90;;;;;;5087742;28;20043;-76
2023/07/27 11:00:00;;;;;;;7.85;7.15;;;17.40;99.90;;;;;;5099167;28;20255;-76
2023/07/27 11:02:32;;;;;;;8.95;6.70;;;17.50;99.90;;;;;;5088796;28;20126;-76
2023/07/27 11:05:00;;;;;;;9.30;7.63;;;17.50;99.90;;;;;;5090251;28;20047;-77
2023/07/27 11:07:34;;;;;;;9.82;7.60;;;17.60;99.90;;;;;;5108548;28;20059;-76
2023/07/27 11:10:04;;;;;;;8.10;7.40;;;17.70;99.90;;;;;;5096167;28;20040;-77
2023/07/27 11:12:30;;;;;;;7.43;6.72;;;17.80;99.90;;;;;;5077444;28;20386;-78
2023/07/27 11:15:12;;;;;;;6.95;6.25;;;18.00;99.90;;;;;;5095666;28;20043;-77
2023/07/27 11:17:38;;;;;;;5.65;5.15;;;18.00;99.90;;;;;;5091150;28;20380;-77
2023/07/27 11:20:05;;;;;;;6.43;5.82;;;18.10;99.90;;;;;;5105213;28;20039;-76
2023/07/27 11:22:31;;;;;;;6.00;5.40;;;18.00;99.90;;;;;;5093172;28;20039;-77
2023/07/27 11:24:57;;;;;;;7.30;5.45;;;18.10;99.90;;;;;;5100326;28;20084;-76
2023/07/27 11:27:24;;;;;;;6.18;5.57;;;18.20;99.90;;;;;;5096719;28;20151;-75
2023/07/27 11:29:51;;;;;;;6.63;5.57;;;18.20;99.90;;;;;;5100857;28;20044;-76
2023/07/27 11:32:25;;;;;;;7.05;6.35;;;18.30;99.90;;;;;;5089950;28;20533;-76
2023/07/27 11:34:55;;;;;;;7.55;6.72;;;18.40;99.90;;;;;;5096614;28;20036;-77
2023/07/27 11:37:20;;;;;;;7.20;6.53;;;18.50;99.90;;;;;;5078591;28;20036;-77
2023/07/27 11:39:46;;;;;;;7.00;6.40;;;18.50;99.90;;;;;;5084298;28;20039;-77
2023/07/27 11:42:13;;;;;;;7.60;6.90;;;18.60;99.90;;;;;;5099251;27;20555;-76
2023/07/27 11:44:39;;;;;;;6.78;6.13;;;18.60;99.90;;;;;;5070240;28;20045;-78
2023/07/27 11:47:05;;;;;;;6.15;4.45;;;18.60;99.90;;;;;;5100886;28;20093;-80
2023/07/27 11:49:30;;;;;;;6.40;4.70;;;18.60;99.90;;;;;;5061897;28;20040;-81
2023/07/27 11:51:56;;;;;;;6.10;5.50;;;18.60;99.90;;;;;;5096867;28;20441;-80
2023/07/27 11:54:24;;;;;;;6.20;5.40;;;18.60;99.90;;;;;;5095175;27;20062;-79
2023/07/27 11:56:51;;;;;;;6.85;6.03;;;18.50;99.90;;;;;;5080105;28;20052;-81
2023/07/27 11:59:17;;;;;;;6.82;5.90;;;18.60;99.90;;;;;;5101394;28;20040;-82
2023/07/27 12:01:43;;;;;;;6.22;5.65;;;18.60;99.90;;;;;;5088747;28;20490;-79
2023/07/27 12:04:11;;;;;;;7.57;5.70;;;18.60;99.90;;;;;;5087250;28;20050;-82
2023/07/27 12:06:37;;;;;;;3.50;2.85;;;18.70;99.90;;;;;;5088001;28;20078;-81
2023/07/27 12:09:04;;;;;;;2.30;1.80;;;18.70;99.90;;;;;;5088692;28;20066;-78
2023/07/27 12:11:30;;;;;;;2.17;1.30;;;18.80;99.90;;;;;;5102549;28;20114;-78
2023/07/27 12:13:56;;;;;;;2.75;1.13;;;18.90;99.90;;;;;;5085271;28;20119;-80
2023/07/27 12:16:21;;;;;;;2.72;1.40;;;18.90;99.90;;;;;;5087357;28;20083;-79
2023/07/27 12:18:47;;;;;;;1.88;1.20;;;19.10;99.90;;;;;;5102860;27;20521;-78
2023/07/27 12:21:14;;;;;;;2.20;1.40;;;19.20;99.90;;;;;;5083945;28;20091;-76
2023/07/27 12:23:40;;;;;;;2.00;1.27;;;19.30;99.90;;;;;;5101836;28;20047;-78
2023/07/27 12:26:09;;;;;;;2.80;0.88;;;19.30;99.90;;;;;;5104637;28;20051;-77
2023/07/27 12:28:35;;;;;;;2.90;0.90;;;19.50;99.90;;;;;;5065879;28;20044;-80
2023/07/27 12:31:00;;;;;;;1.90;1.02;;;19.50;99.90;;;;;;5084035;28;20047;-78
2023/07/27 12:33:28;;;;;;;1.90;0.90;;;19.50;99.90;;;;;;5070322;28;20044;-79
2023/07/27 12:35:53;;;;;;;1.65;0.90;;;19.50;99.90;;;;;;5086948;28;20106;-80
2023/07/27 12:38:19;;;;;;;1.75;1.00;;;19.60;99.90;;;;;;5102616;28;20051;-80